createdAt,value
2017-11-18T00:00:26.853Z,7.00
2017-11-18T00:02:55.797Z,7.00
2017-11-18T00:05:25.529Z,7.00
2017-11-18T00:07:55.318Z,6.90
2017-11-18T00:10:24.666Z,7.00
2017-11-18T00:12:54.020Z,7.00
2017-11-18T00:15:23.347Z,7.00
2017-11-18T00:17:53.067Z,7.10
2017-11-18T00:20:22.048Z,7.10
2017-11-18T00:22:50.988Z,7.10
2017-11-18T00:25:20.030Z,7.10
2017-11-18T00:27:49.383Z,7.00
2017-11-18T00:30:18.427Z,7.00
2017-11-18T00:32:48.186Z,7.00
2017-11-18T00:35:17.516Z,6.90
2017-11-18T00:37:46.452Z,6.90
2017-11-18T00:40:16.176Z,6.90
2017-11-18T00:42:45.154Z,6.90
2017-11-18T00:45:14.102Z,6.90
2017-11-18T00:47:43.029Z,6.80
2017-11-18T00:50:12.011Z,6.90
2017-11-18T00:52:44.072Z,6.80
2017-11-18T00:55:13.781Z,6.90
2017-11-18T00:57:42.797Z,6.80
2017-11-18T01:00:11.726Z,6.90
2017-11-18T01:02:40.668Z,6.90
2017-11-18T01:05:09.640Z,6.80
2017-11-18T01:07:40.801Z,6.80
2017-11-18T01:10:09.763Z,6.80
2017-11-18T01:12:38.729Z,6.70
2017-11-18T01:15:07.675Z,6.70
2017-11-18T01:17:37.035Z,6.80
2017-11-18T01:20:05.990Z,6.70
2017-11-18T01:22:34.967Z,6.80
2017-11-18T01:25:03.903Z,6.80
2017-11-18T01:27:32.850Z,6.70
2017-11-18T01:30:01.797Z,6.80
2017-11-18T01:32:31.153Z,6.70
2017-11-18T01:35:00.101Z,6.70
2017-11-18T01:37:29.822Z,6.60
2017-11-18T01:39:59.559Z,6.50
2017-11-18T01:42:28.895Z,6.40
2017-11-18T01:44:59.362Z,6.40
2017-11-18T01:47:29.081Z,6.30
2017-11-18T01:49:58.017Z,6.20
2017-11-18T01:52:27.735Z,6.20
2017-11-18T01:54:56.670Z,6.20
2017-11-18T01:57:25.619Z,6.30
2017-11-18T01:59:54.575Z,6.10
2017-11-18T02:02:35.303Z,6.20
2017-11-18T02:05:04.959Z,6.20
2017-11-18T02:07:35.061Z,6.30
2017-11-18T02:10:04.027Z,6.30
2017-11-18T02:12:33.758Z,6.30
2017-11-18T02:15:02.842Z,6.40
2017-11-18T02:17:32.565Z,6.40
2017-11-18T02:20:01.511Z,6.40
2017-11-18T02:22:30.522Z,6.40
2017-11-18T02:24:59.462Z,6.40
2017-11-18T02:27:28.462Z,6.40
2017-11-18T02:29:57.395Z,6.30
2017-11-18T02:32:27.105Z,6.40
2017-11-18T02:34:56.979Z,6.50
2017-11-18T02:37:26.538Z,6.50
2017-11-18T02:39:55.478Z,6.60
2017-11-18T02:42:27.978Z,6.60
2017-11-18T02:44:56.907Z,6.60
2017-11-18T02:47:26.635Z,6.60
2017-11-18T02:49:55.553Z,6.60
2017-11-18T02:52:24.478Z,6.60
2017-11-18T02:54:54.217Z,6.50
2017-11-18T02:57:23.154Z,6.50
2017-11-18T02:59:52.075Z,6.50
2017-11-18T03:02:21.776Z,6.60
2017-11-18T03:04:51.536Z,6.60
2017-11-18T03:07:20.468Z,6.50
2017-11-18T03:09:50.198Z,6.50
2017-11-18T03:12:19.212Z,6.50
2017-11-18T03:14:48.146Z,6.40
2017-11-18T03:17:17.189Z,6.40
2017-11-18T03:19:46.121Z,6.40
2017-11-18T03:22:15.071Z,6.20
2017-11-18T03:24:44.134Z,6.10
2017-11-18T03:27:13.064Z,6.10
2017-11-18T03:29:42.018Z,6.10
2017-11-18T03:32:11.735Z,6.10
2017-11-18T03:34:41.422Z,6.00
2017-11-18T03:37:10.379Z,6.00
2017-11-18T03:39:39.319Z,5.90
2017-11-18T03:42:09.088Z,5.90
2017-11-18T03:44:38.115Z,5.90
2017-11-18T03:47:07.102Z,5.90
2017-11-18T03:49:36.051Z,5.90
2017-11-18T03:52:05.004Z,6.00
2017-11-18T03:54:34.708Z,6.00
2017-11-18T03:57:04.439Z,6.20
2017-11-18T03:59:33.418Z,6.10
2017-11-18T04:02:03.157Z,6.00
2017-11-18T04:04:32.096Z,6.00
2017-11-18T04:07:01.041Z,6.00
2017-11-18T04:09:30.007Z,6.00
2017-11-18T04:11:59.396Z,6.00
2017-11-18T04:14:29.082Z,6.10
2017-11-18T04:16:58.055Z,6.10
2017-11-18T04:19:27.068Z,6.30
2017-11-18T04:21:56.026Z,6.40
2017-11-18T04:24:24.999Z,6.40
2017-11-18T04:26:54.717Z,6.50
2017-11-18T04:29:24.443Z,6.60
2017-11-18T04:31:53.484Z,6.60
2017-11-18T04:34:23.168Z,6.60
2017-11-18T04:36:52.097Z,6.70
2017-11-18T04:39:21.853Z,6.70
2017-11-18T04:41:50.982Z,6.60
2017-11-18T04:44:20.711Z,6.70
2017-11-18T04:46:50.430Z,6.80
2017-11-18T04:49:19.822Z,6.60
2017-11-18T04:51:49.621Z,6.70
2017-11-18T04:54:18.549Z,6.80
2017-11-18T04:56:47.606Z,6.90
2017-11-18T04:59:16.509Z,6.80
2017-11-18T05:01:46.234Z,6.80
2017-11-18T05:04:15.163Z,6.80
2017-11-18T05:06:44.084Z,6.70
2017-11-18T05:09:13.874Z,6.70
2017-11-18T05:11:42.841Z,6.70
2017-11-18T05:14:12.191Z,6.70
2017-11-18T05:16:41.121Z,6.80
2017-11-18T05:19:10.088Z,6.80
2017-11-18T05:21:39.011Z,6.80
2017-11-18T05:24:07.934Z,6.90
2017-11-18T05:26:36.882Z,6.90
2017-11-18T05:29:05.806Z,6.90
2017-11-18T05:31:34.753Z,6.90
2017-11-18T05:34:03.725Z,6.90
2017-11-18T05:36:33.419Z,7.00
2017-11-18T05:39:02.380Z,6.80
2017-11-18T05:41:31.808Z,6.80
2017-11-18T05:44:01.173Z,6.90
2017-11-18T05:46:30.075Z,7.00
2017-11-18T05:48:59.085Z,7.00
2017-11-18T05:51:28.040Z,7.00
2017-11-18T05:53:57.026Z,7.00
2017-11-18T05:56:25.956Z,7.10
2017-11-18T05:58:55.081Z,7.00
2017-11-18T06:01:24.032Z,7.00
2017-11-18T06:03:53.749Z,7.00
2017-11-18T06:06:22.720Z,7.00
2017-11-18T06:08:51.801Z,7.20
2017-11-18T06:11:21.519Z,7.10
2017-11-18T06:13:50.482Z,7.00
2017-11-18T06:16:20.172Z,7.00
2017-11-18T06:18:50.227Z,6.90
2017-11-18T06:21:19.631Z,6.80
2017-11-18T06:23:48.689Z,6.90
2017-11-18T06:26:19.524Z,6.80
2017-11-18T06:28:49.864Z,6.70
2017-11-18T06:31:19.568Z,6.70
2017-11-18T06:33:49.303Z,6.70
2017-11-18T06:36:18.232Z,6.70
2017-11-18T06:38:47.175Z,6.70
2017-11-18T06:41:16.238Z,6.70
2017-11-18T06:43:45.174Z,6.70
2017-11-18T06:46:14.114Z,6.70
2017-11-18T06:48:43.088Z,6.70
2017-11-18T06:51:12.787Z,6.70
2017-11-18T06:53:41.710Z,6.60
2017-11-18T06:56:13.177Z,6.60
2017-11-18T06:58:42.902Z,6.60
2017-11-18T07:01:12.004Z,6.50
2017-11-18T07:03:40.961Z,6.60
2017-11-18T07:06:11.922Z,6.60
2017-11-18T07:08:40.941Z,6.60
2017-11-18T07:11:11.073Z,6.50
2017-11-18T07:13:40.044Z,6.50
2017-11-18T07:16:09.482Z,6.50
2017-11-18T07:18:38.796Z,6.60
2017-11-18T07:21:07.779Z,6.60
2017-11-18T07:23:37.190Z,6.50
2017-11-18T07:26:06.161Z,6.40
2017-11-18T07:28:35.898Z,6.50
2017-11-18T07:31:05.234Z,6.50
2017-11-18T07:33:35.085Z,6.50
2017-11-18T07:36:04.008Z,6.50
2017-11-18T07:38:32.971Z,6.60
2017-11-18T07:41:03.552Z,6.50
2017-11-18T07:43:32.535Z,6.60
2017-11-18T07:46:01.865Z,6.60
2017-11-18T07:48:30.839Z,6.60
2017-11-18T07:51:00.190Z,6.70
2017-11-18T07:53:29.950Z,6.70
2017-11-18T07:55:59.722Z,6.70
2017-11-18T07:58:28.687Z,6.80
2017-11-18T08:00:57.726Z,6.70
2017-11-18T08:03:27.843Z,6.80
2017-11-18T08:05:57.706Z,6.80
2017-11-18T08:08:26.671Z,6.80
2017-11-18T08:10:56.368Z,7.00
2017-11-18T08:13:25.724Z,6.90
2017-11-18T08:15:54.754Z,6.90
2017-11-18T08:18:23.799Z,6.90
2017-11-18T08:20:53.234Z,6.80
2017-11-18T08:23:22.190Z,6.80
2017-11-18T08:25:52.559Z,6.90
2017-11-18T08:28:22.304Z,6.90
2017-11-18T08:30:51.702Z,6.90
2017-11-18T08:33:22.168Z,7.10
2017-11-18T08:35:51.094Z,7.20
2017-11-18T08:38:20.495Z,7.40
2017-11-18T08:40:49.921Z,7.50
2017-11-18T08:43:19.709Z,7.70
2017-11-18T08:45:50.150Z,7.60
2017-11-18T08:48:19.855Z,7.60
2017-11-18T08:50:49.590Z,7.60
2017-11-18T08:53:18.549Z,7.70
2017-11-18T08:55:47.890Z,7.60
2017-11-18T08:58:16.820Z,7.40
2017-11-18T09:00:45.769Z,7.40
2017-11-18T09:03:15.481Z,7.40
2017-11-18T09:05:44.408Z,7.40
2017-11-18T09:08:14.132Z,7.40
2017-11-18T09:10:43.495Z,7.40
2017-11-18T09:13:12.521Z,7.40
2017-11-18T09:15:41.466Z,7.50
2017-11-18T09:18:10.448Z,7.50
2017-11-18T09:20:39.415Z,7.70
2017-11-18T09:23:08.739Z,7.70
2017-11-18T09:25:37.762Z,7.90
2017-11-18T09:28:06.711Z,8.10
2017-11-18T09:30:36.402Z,8.00
2017-11-18T09:33:06.145Z,8.00
2017-11-18T09:35:35.094Z,7.90
2017-11-18T09:38:04.079Z,7.90
2017-11-18T09:40:33.051Z,7.90
2017-11-18T09:43:02.389Z,8.10
2017-11-18T09:45:31.387Z,8.20
2017-11-18T09:48:01.090Z,8.20
2017-11-18T09:50:30.053Z,8.20
2017-11-18T09:52:59.087Z,8.20
2017-11-18T09:55:29.621Z,8.10
2017-11-18T09:57:59.332Z,8.20
2017-11-18T10:00:28.263Z,8.30
2017-11-18T10:02:57.686Z,8.20
2017-11-18T10:05:26.631Z,8.20
2017-11-18T10:07:55.556Z,8.20
2017-11-18T10:10:25.333Z,8.20
2017-11-18T10:12:54.293Z,8.00
2017-11-18T10:15:23.253Z,8.00
2017-11-18T10:17:52.254Z,8.10
2017-11-18T10:20:21.186Z,8.10
2017-11-18T10:22:50.930Z,8.30
2017-11-18T10:25:20.665Z,8.40
2017-11-18T10:27:50.357Z,8.50
2017-11-18T10:30:19.321Z,8.40
2017-11-18T10:32:48.278Z,8.40
2017-11-18T10:35:17.973Z,8.40
2017-11-18T10:37:47.330Z,8.40
2017-11-18T10:40:16.697Z,8.40
2017-11-18T10:42:46.732Z,8.30
2017-11-18T10:45:16.538Z,8.20
2017-11-18T10:47:46.245Z,8.10
2017-11-18T10:50:16.318Z,7.80
2017-11-18T10:52:45.267Z,7.70
2017-11-18T10:55:14.187Z,7.50
2017-11-18T10:57:43.142Z,7.30
2017-11-18T11:00:12.697Z,7.20
2017-11-18T11:02:41.646Z,7.20
2017-11-18T11:05:10.640Z,7.10
2017-11-18T11:07:39.586Z,7.00
2017-11-18T11:10:09.537Z,6.90
2017-11-18T11:12:41.383Z,6.90
2017-11-18T11:15:10.764Z,6.90
2017-11-18T11:17:39.678Z,6.80
2017-11-18T11:20:08.661Z,6.80
2017-11-18T11:25:32.769Z,6.80
2017-11-18T11:28:02.153Z,6.70
2017-11-18T11:30:31.155Z,6.60
2017-11-18T11:33:01.182Z,6.70
2017-11-18T11:35:32.826Z,6.90
2017-11-18T11:38:02.187Z,7.00
2017-11-18T11:40:31.913Z,7.00
2017-11-18T11:43:00.924Z,7.10
2017-11-18T11:45:29.843Z,6.90
2017-11-18T11:47:59.405Z,6.80
2017-11-18T11:50:28.753Z,6.80
2017-11-18T11:52:57.758Z,6.90
2017-11-18T11:55:27.491Z,6.90
2017-11-18T11:57:56.478Z,6.90
2017-11-18T12:00:25.437Z,7.00
2017-11-18T12:02:54.673Z,6.90
2017-11-18T12:05:25.544Z,7.00
2017-11-18T12:07:55.289Z,6.90
2017-11-18T12:10:24.286Z,7.10
2017-11-18T12:12:54.011Z,7.10
2017-11-18T12:15:23.020Z,6.90
2017-11-18T12:17:52.026Z,6.80
2017-11-18T12:20:20.958Z,6.50
2017-11-18T12:22:50.035Z,6.40
2017-11-18T12:25:20.871Z,6.20
2017-11-18T12:27:49.850Z,6.20
2017-11-18T12:30:19.569Z,6.20
2017-11-18T12:32:49.334Z,6.10
2017-11-18T12:35:19.019Z,6.10
2017-11-18T12:37:47.973Z,6.10
2017-11-18T12:40:17.331Z,6.10
2017-11-18T12:42:46.434Z,7.00
2017-11-18T12:47:49.681Z,6.00
2017-11-18T12:50:19.012Z,6.10
2017-11-18T12:52:47.997Z,6.10
2017-11-18T12:55:17.752Z,6.20
2017-11-18T12:57:46.701Z,6.20
2017-11-18T13:00:15.854Z,6.40
2017-11-18T13:02:44.858Z,6.50
2017-11-18T13:05:13.767Z,6.50
2017-11-18T13:07:43.573Z,6.50
2017-11-18T13:10:13.397Z,7.10
2017-11-18T13:12:42.388Z,8.10
2017-11-18T13:15:11.320Z,8.60
2017-11-18T13:17:40.287Z,8.70
2017-11-18T13:20:09.331Z,8.80
2017-11-18T13:22:38.696Z,9.10
2017-11-18T13:25:08.081Z,8.70
2017-11-18T13:27:37.972Z,8.50
2017-11-18T13:30:07.194Z,8.40
2017-11-18T13:32:36.566Z,8.40
2017-11-18T13:35:06.368Z,8.50
2017-11-18T13:37:35.837Z,8.50
2017-11-18T13:40:04.932Z,9.50
2017-11-18T13:42:34.923Z,8.00
2017-11-18T13:45:06.742Z,7.60
2017-11-18T13:47:36.340Z,7.40
2017-11-18T13:50:05.732Z,7.30
2017-11-18T13:52:35.644Z,7.40
2017-11-18T13:55:04.629Z,7.40
2017-11-18T13:57:33.620Z,7.30
2017-11-18T14:00:04.288Z,7.30
2017-11-18T14:02:35.902Z,7.40
2017-11-18T14:05:06.118Z,7.40
2017-11-18T14:07:35.221Z,7.40
2017-11-18T14:10:05.869Z,7.40
2017-11-18T14:12:35.685Z,7.30
2017-11-18T14:15:05.039Z,7.20
2017-11-18T14:17:34.088Z,7.20
2017-11-18T14:20:04.181Z,7.10
2017-11-18T14:22:33.281Z,7.10
2017-11-18T14:25:02.407Z,7.00
2017-11-18T14:27:32.511Z,7.00
2017-11-18T14:30:02.232Z,7.10
2017-11-18T14:32:31.174Z,7.10
2017-11-18T14:35:00.551Z,7.10
2017-11-18T14:37:30.391Z,7.00
2017-11-18T14:40:00.472Z,6.90
2017-11-18T14:42:30.224Z,6.70
2017-11-18T14:44:59.202Z,6.70
2017-11-18T14:47:28.163Z,6.60
2017-11-18T14:49:57.092Z,6.60
2017-11-18T14:52:26.043Z,6.50
2017-11-18T14:54:55.233Z,6.50
2017-11-18T14:57:24.241Z,6.50
2017-11-18T14:59:53.151Z,6.50
2017-11-18T15:02:22.159Z,6.50
2017-11-18T15:04:51.862Z,6.50
2017-11-18T15:07:20.855Z,6.40
2017-11-18T15:09:49.787Z,6.30
2017-11-18T15:12:19.538Z,6.20
2017-11-18T15:15:08.224Z,6.10
2017-11-18T15:17:42.835Z,6.00
2017-11-18T15:20:17.438Z,6.00
2017-11-18T15:22:51.936Z,6.00
2017-11-18T15:25:26.596Z,6.10
2017-11-18T15:31:01.323Z,5.90
2017-11-18T15:33:31.710Z,5.90
2017-11-18T15:36:11.778Z,5.90
2017-11-18T15:38:52.253Z,5.80
2017-11-18T15:41:21.951Z,5.80
2017-11-18T15:43:56.614Z,5.80
2017-11-18T15:46:28.949Z,5.90
2017-11-18T15:49:03.759Z,5.90
2017-11-18T15:51:35.947Z,5.90
2017-11-18T15:54:10.647Z,5.80
2017-11-18T15:56:45.362Z,5.80
2017-11-18T15:59:15.101Z,5.80
2017-11-18T16:01:55.643Z,5.80
2017-11-18T16:04:26.283Z,5.80
2017-11-18T16:07:02.642Z,5.80
2017-11-18T16:09:32.342Z,5.80
2017-11-18T16:12:01.301Z,5.80
2017-11-18T16:14:30.275Z,5.70
2017-11-18T16:16:59.621Z,5.60
2017-11-18T16:19:28.624Z,5.60
2017-11-18T16:21:57.562Z,5.50
2017-11-18T16:24:26.478Z,5.50
2017-11-18T16:26:55.439Z,5.60
2017-11-18T16:29:25.148Z,5.40
2017-11-18T16:31:54.841Z,5.40
2017-11-18T16:34:24.550Z,5.40
2017-11-18T16:36:54.260Z,5.40
2017-11-18T16:39:23.994Z,5.50
2017-11-18T16:41:52.986Z,5.60
2017-11-18T16:44:23.896Z,5.60
2017-11-18T16:46:53.283Z,5.50
2017-11-18T16:49:22.983Z,5.40
2017-11-18T16:51:51.916Z,5.40
2017-11-18T16:54:20.881Z,5.50
2017-11-18T16:56:49.798Z,5.50
2017-11-18T16:59:18.800Z,5.60
2017-11-18T17:01:47.734Z,5.60
2017-11-18T17:04:17.092Z,5.60
2017-11-18T17:06:46.200Z,5.70
2017-11-18T17:09:15.229Z,5.70
2017-11-18T17:11:44.223Z,5.70
2017-11-18T17:14:13.279Z,5.70
2017-11-18T17:16:42.237Z,5.70
2017-11-18T17:19:11.173Z,5.70
2017-11-18T17:21:40.185Z,5.60
2017-11-18T17:24:10.048Z,5.50
2017-11-18T17:26:39.006Z,5.40
2017-11-18T17:29:08.809Z,5.50
2017-11-18T17:31:38.564Z,5.40
2017-11-18T17:34:08.222Z,5.30
2017-11-18T17:36:37.968Z,5.20
2017-11-18T17:39:07.321Z,5.20
2017-11-18T17:41:37.044Z,5.10
2017-11-18T17:44:06.012Z,5.10
2017-11-18T17:46:34.951Z,5.10
2017-11-18T17:49:04.647Z,5.10
2017-11-18T17:51:33.649Z,5.10
2017-11-18T17:54:03.039Z,5.00
2017-11-18T17:56:32.428Z,5.00
2017-11-18T17:59:01.480Z,4.90
2017-11-18T18:01:30.421Z,5.00
2017-11-18T18:04:00.139Z,4.90
2017-11-18T18:06:29.863Z,4.90
2017-11-18T18:08:58.810Z,4.90
2017-11-18T18:11:27.782Z,4.90
2017-11-18T18:13:57.483Z,5.00
2017-11-18T18:16:26.499Z,5.10
2017-11-18T18:18:55.756Z,5.10
2017-11-18T18:21:24.731Z,5.10
2017-11-18T18:23:53.723Z,5.00
2017-11-18T18:26:22.858Z,5.00
2017-11-18T18:28:51.809Z,5.00
2017-11-18T18:31:20.774Z,4.90
2017-11-18T18:33:49.727Z,5.00
2017-11-18T18:36:19.461Z,4.90
2017-11-18T18:38:48.519Z,4.90
2017-11-18T18:41:17.447Z,4.80
2017-11-18T18:43:47.150Z,4.70
2017-11-18T18:46:16.174Z,4.70
2017-11-18T18:48:45.896Z,4.70
2017-11-18T18:51:15.064Z,4.80
2017-11-18T18:53:44.018Z,4.80
2017-11-18T18:56:12.954Z,4.70
2017-11-18T18:58:41.919Z,4.70
2017-11-18T19:01:11.626Z,4.70
2017-11-18T19:03:40.990Z,4.80
2017-11-18T19:06:10.093Z,4.70
2017-11-18T19:08:39.088Z,4.70
2017-11-18T19:11:08.467Z,4.70
2017-11-18T19:13:37.827Z,4.70
2017-11-18T19:16:06.784Z,5.50
2017-11-18T19:18:35.837Z,4.60
2017-11-18T19:21:04.724Z,4.70
2017-11-18T19:23:34.068Z,4.70
2017-11-18T19:26:03.527Z,4.90
2017-11-18T19:28:32.462Z,4.80
2017-11-18T19:31:01.524Z,4.80
2017-11-18T19:33:31.331Z,4.70
2017-11-18T19:36:01.078Z,4.70
2017-11-18T19:38:30.779Z,4.70
2017-11-18T19:40:59.749Z,4.60
2017-11-18T19:43:29.548Z,4.60
2017-11-18T19:45:59.233Z,4.70
2017-11-18T19:48:28.185Z,4.60
2017-11-18T19:50:57.146Z,4.60
2017-11-18T19:53:26.898Z,4.50
2017-11-18T19:55:55.941Z,4.40
2017-11-18T19:58:24.895Z,4.40
2017-11-18T20:00:54.287Z,4.40
2017-11-18T20:03:23.988Z,4.40
2017-11-18T20:05:54.808Z,4.40
2017-11-18T20:08:24.526Z,4.30
2017-11-18T20:10:53.461Z,4.40
2017-11-18T20:13:22.835Z,4.40
2017-11-18T20:15:51.789Z,4.50
2017-11-18T20:18:21.535Z,4.40
2017-11-18T20:20:50.521Z,4.40
2017-11-18T20:23:19.532Z,4.40
2017-11-18T20:25:49.388Z,4.40
2017-11-18T20:28:18.691Z,4.40
2017-11-18T20:30:48.426Z,4.30
2017-11-18T20:33:17.382Z,4.30
2017-11-18T20:35:46.478Z,4.30
2017-11-18T20:38:16.213Z,4.20
2017-11-18T20:40:45.214Z,4.20
2017-11-18T20:43:14.202Z,4.10
2017-11-18T20:45:43.204Z,4.10
2017-11-18T20:48:12.239Z,4.00
2017-11-18T20:50:41.251Z,4.10
2017-11-18T20:53:11.030Z,4.10
2017-11-18T20:55:40.062Z,4.10
2017-11-18T20:58:09.889Z,4.20
2017-11-18T21:00:38.866Z,4.10
2017-11-18T21:03:08.597Z,4.10
2017-11-18T21:05:37.999Z,4.10
2017-11-18T21:08:07.387Z,4.10
2017-11-18T21:10:37.168Z,4.10
2017-11-18T21:13:06.109Z,4.10
2017-11-18T21:15:35.048Z,4.10
2017-11-18T21:18:04.803Z,4.00
2017-11-18T21:20:33.814Z,3.90
2017-11-18T21:23:03.552Z,3.90
2017-11-18T21:25:32.506Z,3.90
2017-11-18T21:28:01.939Z,3.90
2017-11-18T21:30:30.973Z,3.90
2017-11-18T21:33:00.708Z,3.90
2017-11-18T21:35:30.480Z,3.90
2017-11-18T21:37:59.424Z,3.80
2017-11-18T21:40:29.499Z,3.80
2017-11-18T21:42:59.251Z,3.80
2017-11-18T21:45:28.192Z,3.80
2017-11-18T21:47:57.583Z,3.90
2017-11-18T21:50:26.557Z,3.80
2017-11-18T21:52:55.506Z,3.80
2017-11-18T21:55:25.262Z,3.70
2017-11-18T21:57:54.216Z,3.80
2017-11-18T22:00:23.191Z,3.80
2017-11-18T22:02:52.913Z,3.70
2017-11-18T22:05:21.869Z,3.70
2017-11-18T22:07:51.619Z,3.80
2017-11-18T22:10:21.419Z,3.70
2017-11-18T22:12:51.192Z,3.70
2017-11-18T22:15:20.530Z,3.70
2017-11-18T22:17:49.519Z,3.70
2017-11-18T22:20:18.509Z,3.70
2017-11-18T22:22:48.260Z,3.70
2017-11-18T22:25:17.247Z,3.70
2017-11-18T22:27:46.628Z,3.70
2017-11-18T22:30:15.992Z,3.70
2017-11-18T22:32:45.094Z,3.70
2017-11-18T22:35:14.832Z,3.70
2017-11-18T22:37:44.612Z,3.70
2017-11-18T22:40:14.321Z,3.70
2017-11-18T22:42:44.054Z,3.80
2017-11-18T22:45:13.026Z,3.80
2017-11-18T22:47:42.746Z,3.90
2017-11-18T22:50:12.474Z,4.00
2017-11-18T22:52:41.830Z,4.00
2017-11-18T22:55:12.434Z,4.10
2017-11-18T22:57:41.759Z,4.10
2017-11-18T23:00:12.522Z,4.10
2017-11-18T23:02:41.966Z,4.10
2017-11-18T23:05:11.717Z,4.10
2017-11-18T23:07:41.434Z,4.10
2017-11-18T23:10:11.205Z,4.10
2017-11-18T23:12:40.948Z,4.20
2017-11-18T23:15:10.294Z,4.10
2017-11-18T23:17:39.655Z,4.10
2017-11-18T23:20:10.400Z,4.10
2017-11-18T23:22:39.341Z,4.10
2017-11-18T23:25:08.386Z,4.00
2017-11-18T23:27:37.734Z,4.00
2017-11-18T23:30:06.779Z,3.90
2017-11-18T23:32:36.465Z,3.80
2017-11-18T23:35:06.197Z,3.90
2017-11-18T23:37:35.180Z,3.90
2017-11-18T23:40:04.992Z,3.90
2017-11-18T23:42:34.091Z,3.90
2017-11-18T23:45:03.775Z,3.80
2017-11-18T23:47:33.132Z,3.70
2017-11-18T23:50:02.519Z,3.80
2017-11-18T23:52:32.196Z,3.80
2017-11-18T23:55:01.532Z,3.80
2017-11-18T23:57:30.495Z,3.80
